createdAt,value
2023-05-19T00:01:44.302Z,19.92
2023-05-19T00:04:17.788Z,16.95
2023-05-19T00:06:51.847Z,15.48
2023-05-19T00:09:23.785Z,16.20
2023-05-19T00:11:57.312Z,17.95
2023-05-19T00:14:29.588Z,17.02
2023-05-19T00:17:02.503Z,16.90
2023-05-19T00:19:32.894Z,14.95
2023-05-19T00:22:05.888Z,16.33
2023-05-19T00:24:35.617Z,16.73
2023-05-19T00:27:10.391Z,15.80
2023-05-19T00:29:39.701Z,17.42
2023-05-19T00:32:12.156Z,16.90
2023-05-19T00:34:46.299Z,15.90
2023-05-19T00:37:23.822Z,16.40
2023-05-19T00:39:58.640Z,15.48
2023-05-19T00:42:30.419Z,16.40
2023-05-19T00:45:02.214Z,15.82
2023-05-19T00:47:34.166Z,18.65
2023-05-19T00:50:09.290Z,14.98
2023-05-19T00:52:42.081Z,16.92
2023-05-19T00:55:14.960Z,16.42
2023-05-19T00:57:44.776Z,15.93
2023-05-19T01:00:14.853Z,15.90
2023-05-19T01:02:44.483Z,17.02
2023-05-19T01:05:16.847Z,16.80
2023-05-19T01:07:47.599Z,16.92
2023-05-19T01:10:26.812Z,19.25
2023-05-19T01:12:56.923Z,18.10
2023-05-19T01:15:33.773Z,18.10
2023-05-19T01:20:55.629Z,16.45
2023-05-19T01:23:58.702Z,16.02
2023-05-19T01:27:11.436Z,17.63
2023-05-19T01:30:18.318Z,15.27
2023-05-19T01:35:27.176Z,18.67
2023-05-19T01:38:00.670Z,14.55
2023-05-19T01:40:34.252Z,15.75
2023-05-19T01:43:09.647Z,16.40
2023-05-19T01:45:45.398Z,16.35
2023-05-19T01:48:16.794Z,14.02
2023-05-19T01:50:52.796Z,20.17
2023-05-19T01:53:25.040Z,17.23
2023-05-19T01:55:56.768Z,17.67
2023-05-19T01:58:49.307Z,15.23
2023-05-19T02:01:54.817Z,16.67
2023-05-19T02:04:41.933Z,15.48
2023-05-19T02:08:00.653Z,16.65
2023-05-19T02:10:41.524Z,18.10
2023-05-19T02:13:14.722Z,16.40
2023-05-19T02:15:46.315Z,18.75
2023-05-19T02:18:22.285Z,19.33
2023-05-19T02:20:57.133Z,18.60
2023-05-19T02:23:35.128Z,19.42
2023-05-19T02:26:05.331Z,15.98
2023-05-19T02:28:43.655Z,16.08
2023-05-19T02:31:37.247Z,15.40
2023-05-19T02:34:09.297Z,17.27
2023-05-19T02:36:50.395Z,17.50
2023-05-19T02:39:21.968Z,18.13
2023-05-19T02:41:56.448Z,18.88
2023-05-19T02:44:26.902Z,17.05
2023-05-19T02:47:04.051Z,14.68
2023-05-19T02:49:36.485Z,16.55
2023-05-19T02:57:13.270Z,15.60
2023-05-19T02:59:48.170Z,18.77
2023-05-19T03:02:20.244Z,16.48
2023-05-19T03:04:55.626Z,15.75
2023-05-19T03:07:30.122Z,19.25
2023-05-19T03:10:04.632Z,17.80
2023-05-19T03:12:41.678Z,15.45
2023-05-19T03:15:13.610Z,17.35
2023-05-19T03:17:43.581Z,18.17
2023-05-19T03:20:19.219Z,16.98
2023-05-19T03:25:20.327Z,15.13
2023-05-19T03:27:54.637Z,16.95
2023-05-19T03:30:25.042Z,14.52
2023-05-19T03:33:11.144Z,18.02
2023-05-19T03:35:47.155Z,17.95
2023-05-19T03:38:20.105Z,15.98
2023-05-19T03:41:03.628Z,17.30
2023-05-19T03:43:33.785Z,17.33
2023-05-19T03:46:08.593Z,16.58
2023-05-19T03:48:58.502Z,18.23
2023-05-19T03:51:51.151Z,15.82
2023-05-19T03:54:28.706Z,18.08
2023-05-19T03:57:03.012Z,17.63
2023-05-19T03:59:38.367Z,17.83
2023-05-19T04:02:13.126Z,17.80
2023-05-19T04:04:48.043Z,19.30
2023-05-19T04:07:19.915Z,17.95
2023-05-19T04:09:53.536Z,16.08
2023-05-19T04:12:25.571Z,17.45
2023-05-19T04:15:00.603Z,18.45
2023-05-19T04:17:30.601Z,18.05
2023-05-19T04:19:59.965Z,15.05
2023-05-19T04:22:32.101Z,13.32
2023-05-19T04:25:05.881Z,17.55
2023-05-19T04:27:39.744Z,16.92
2023-05-19T04:30:18.725Z,14.90
2023-05-19T04:32:56.882Z,15.98
2023-05-19T04:35:33.432Z,14.05
2023-05-19T04:38:10.637Z,17.75
2023-05-19T04:40:45.736Z,17.35
2023-05-19T04:43:17.378Z,18.10
2023-05-19T04:45:52.002Z,14.20
2023-05-19T04:48:26.552Z,16.40
2023-05-19T04:51:02.011Z,16.90
2023-05-19T04:53:31.905Z,14.77
2023-05-19T04:56:04.098Z,18.00
2023-05-19T04:58:41.829Z,19.35
2023-05-19T05:01:17.054Z,14.82
2023-05-19T05:03:49.792Z,16.95
2023-05-19T05:06:20.796Z,15.48
2023-05-19T05:08:55.613Z,15.70
2023-05-19T05:11:28.252Z,14.50
2023-05-19T05:14:03.778Z,16.27
2023-05-19T05:16:37.643Z,19.38
2023-05-19T05:19:16.488Z,15.82
2023-05-19T05:21:54.578Z,17.23
2023-05-19T05:24:24.748Z,13.40
2023-05-19T05:27:06.370Z,15.15
2023-05-19T05:29:38.671Z,14.40
2023-05-19T05:32:13.452Z,14.90
2023-05-19T05:34:46.640Z,15.00
2023-05-19T05:37:16.703Z,17.77
2023-05-19T05:39:51.365Z,15.18
2023-05-19T05:42:23.490Z,15.75
2023-05-19T05:47:28.622Z,18.23
2023-05-19T05:50:01.939Z,16.63
2023-05-19T05:52:38.347Z,15.35
2023-05-19T05:55:12.025Z,14.35
2023-05-19T05:57:44.773Z,12.63
2023-05-19T06:00:17.741Z,17.23
2023-05-19T06:02:53.602Z,16.25
2023-05-19T06:05:25.840Z,13.98
2023-05-19T06:08:00.017Z,15.40
2023-05-19T06:10:34.028Z,16.73
2023-05-19T06:13:07.446Z,14.65
2023-05-19T06:15:43.194Z,18.85
2023-05-19T06:18:38.859Z,14.65
2023-05-19T06:21:13.942Z,13.68
2023-05-19T06:23:50.003Z,18.75
2023-05-19T06:26:27.145Z,19.30
2023-05-19T06:29:01.047Z,17.30
2023-05-19T06:31:30.688Z,21.45
2023-05-19T06:34:10.840Z,18.73
2023-05-19T06:36:45.874Z,16.98
2023-05-19T06:39:23.972Z,15.10
2023-05-19T06:41:56.618Z,15.93
2023-05-19T06:44:50.084Z,16.52
2023-05-19T06:47:19.692Z,15.40
2023-05-19T06:49:57.473Z,15.18
2023-05-19T06:52:30.166Z,14.93
2023-05-19T06:55:06.512Z,15.75
2023-05-19T06:57:40.891Z,17.17
2023-05-19T07:00:32.031Z,16.85
2023-05-19T07:03:08.610Z,17.83
2023-05-19T07:05:41.038Z,17.52
2023-05-19T07:08:13.705Z,16.38
2023-05-19T07:10:47.438Z,16.77
2023-05-19T07:13:21.911Z,18.38
2023-05-19T07:15:56.151Z,20.83
2023-05-19T07:18:32.528Z,15.13
2023-05-19T07:21:07.875Z,13.77
2023-05-19T07:23:45.148Z,26.42
2023-05-19T07:26:19.336Z,17.42
2023-05-19T07:28:49.637Z,18.17
2023-05-19T07:31:24.681Z,16.60
2023-05-19T07:33:54.873Z,18.27
2023-05-19T07:36:25.182Z,15.80
2023-05-19T07:39:02.379Z,19.67
2023-05-19T07:41:34.436Z,16.60
2023-05-19T07:44:10.927Z,20.35
2023-05-19T07:46:43.226Z,17.80
2023-05-19T07:49:13.684Z,13.75
2023-05-19T07:51:45.827Z,14.93
2023-05-19T07:54:16.866Z,13.63
2023-05-19T07:56:49.749Z,11.02
2023-05-19T07:59:19.432Z,12.27
2023-05-19T08:01:55.746Z,14.30
2023-05-19T08:04:29.586Z,11.50
2023-05-19T08:07:21.970Z,14.32
2023-05-19T08:09:57.149Z,12.93
2023-05-19T08:12:27.853Z,18.65
2023-05-19T08:15:01.451Z,11.82
2023-05-19T08:17:32.567Z,12.27
2023-05-19T08:20:09.352Z,14.45
2023-05-19T08:22:48.294Z,13.75
2023-05-19T08:25:20.431Z,12.65
2023-05-19T08:27:59.782Z,16.92
2023-05-19T08:30:33.501Z,12.15
2023-05-19T08:35:59.968Z,13.65
2023-05-19T08:38:32.957Z,15.05
2023-05-19T08:41:06.386Z,12.45
2023-05-19T08:43:44.308Z,10.65
2023-05-19T08:46:17.352Z,12.57
2023-05-19T08:48:59.093Z,13.70
2023-05-19T08:51:34.334Z,14.80
2023-05-19T08:54:16.166Z,11.40
2023-05-19T08:56:53.704Z,11.70
2023-05-19T08:59:25.336Z,12.07
2023-05-19T09:01:57.600Z,13.65
2023-05-19T09:08:13.217Z,13.18
2023-05-19T09:10:52.634Z,15.45
2023-05-19T09:13:45.686Z,12.27
2023-05-19T09:16:38.421Z,11.82
2023-05-19T09:19:31.393Z,9.25
2023-05-19T09:22:06.786Z,10.70
2023-05-19T09:24:42.337Z,12.73
2023-05-19T09:27:24.111Z,10.98
2023-05-19T09:29:55.728Z,11.38
2023-05-19T09:32:28.907Z,12.05
2023-05-19T09:35:00.708Z,9.77
2023-05-19T09:37:32.765Z,9.23
2023-05-19T09:40:02.615Z,10.43
2023-05-19T09:42:41.090Z,12.13
2023-05-19T09:45:15.472Z,13.68
2023-05-19T09:47:45.019Z,9.80
2023-05-19T09:50:15.645Z,9.55
2023-05-19T09:52:48.747Z,15.55
2023-05-19T09:55:24.320Z,10.73
2023-05-19T09:58:00.648Z,8.98
2023-05-19T10:00:35.231Z,12.13
2023-05-19T10:03:15.469Z,10.30
2023-05-19T10:05:46.101Z,15.13
2023-05-19T10:08:18.320Z,10.15
2023-05-19T10:11:27.967Z,10.82
2023-05-19T10:17:47.696Z,11.38
2023-05-19T10:20:55.861Z,12.40
2023-05-19T10:24:21.034Z,13.15
2023-05-19T10:27:22.463Z,11.25
2023-05-19T10:29:56.618Z,14.02
2023-05-19T10:32:32.622Z,12.35
2023-05-19T10:35:11.467Z,11.93
2023-05-19T10:37:53.245Z,13.95
2023-05-19T10:40:31.187Z,16.50
2023-05-19T10:43:51.679Z,9.90
2023-05-19T10:46:36.248Z,10.75
2023-05-19T10:49:09.578Z,12.38
2023-05-19T10:52:00.406Z,12.95
2023-05-19T10:54:47.453Z,11.45
2023-05-19T10:57:20.686Z,10.93
2023-05-19T10:59:54.778Z,10.75
2023-05-19T11:02:45.591Z,9.73
2023-05-19T11:05:28.753Z,10.82
2023-05-19T11:08:09.814Z,9.63
2023-05-19T11:10:44.198Z,9.75
2023-05-19T11:13:23.210Z,12.32
2023-05-19T11:15:57.104Z,10.68
2023-05-19T11:19:21.834Z,15.35
2023-05-19T11:21:55.960Z,16.13
2023-05-19T11:24:36.570Z,13.38
2023-05-19T11:27:33.942Z,11.98
2023-05-19T11:30:18.785Z,11.18
2023-05-19T11:32:54.969Z,13.50
2023-05-19T11:35:36.031Z,11.93
2023-05-19T11:38:14.245Z,13.43
2023-05-19T11:40:51.275Z,11.02
2023-05-19T11:43:23.685Z,10.30
2023-05-19T11:45:59.244Z,9.52
2023-05-19T11:48:30.490Z,10.40
2023-05-19T11:51:04.412Z,13.20
2023-05-19T11:53:39.334Z,8.88
2023-05-19T11:56:12.856Z,12.23
2023-05-19T11:59:07.763Z,12.23
2023-05-19T12:01:37.180Z,10.00
2023-05-19T12:04:15.894Z,12.55
2023-05-19T12:06:51.222Z,10.27
2023-05-19T12:09:26.429Z,10.45
2023-05-19T12:11:59.105Z,12.18
2023-05-19T12:14:30.705Z,12.23
2023-05-19T12:16:59.900Z,10.93
2023-05-19T12:19:29.534Z,12.15
2023-05-19T12:21:58.566Z,11.10
2023-05-19T12:24:34.814Z,12.40
2023-05-19T12:27:18.083Z,9.38
2023-05-19T12:29:56.621Z,11.63
2023-05-19T12:32:35.161Z,12.75
2023-05-19T12:37:39.262Z,13.18
2023-05-19T12:40:17.110Z,12.07
2023-05-19T12:42:53.757Z,11.20
2023-05-19T12:45:29.348Z,12.27
2023-05-19T12:48:07.433Z,15.70
2023-05-19T12:50:40.382Z,10.38
2023-05-19T12:53:13.545Z,13.85
2023-05-19T12:55:44.264Z,12.48
2023-05-19T12:58:16.786Z,12.07
2023-05-19T13:01:05.753Z,12.95
2023-05-19T13:03:43.861Z,14.40
2023-05-19T13:06:15.962Z,12.00
2023-05-19T13:08:48.544Z,13.10
2023-05-19T13:11:27.063Z,14.88
2023-05-19T13:14:03.238Z,11.32
2023-05-19T13:16:35.401Z,14.73
2023-05-19T13:21:52.860Z,14.70
2023-05-19T13:24:31.884Z,12.48
2023-05-19T13:27:01.252Z,14.32
2023-05-19T13:29:33.123Z,13.25
2023-05-19T13:34:40.324Z,12.70
2023-05-19T13:37:10.224Z,10.90
2023-05-19T13:39:39.352Z,11.73
2023-05-19T13:42:17.881Z,13.98
2023-05-19T13:44:47.533Z,14.25
2023-05-19T13:47:17.117Z,14.90
2023-05-19T13:49:47.257Z,12.52
2023-05-19T13:52:18.993Z,13.20
2023-05-19T13:54:55.269Z,13.48
2023-05-19T13:57:28.739Z,12.70
2023-05-19T14:00:05.058Z,14.13
2023-05-19T14:02:43.471Z,11.52
2023-05-19T14:05:15.413Z,13.57
2023-05-19T14:07:48.754Z,13.80
2023-05-19T14:10:23.762Z,12.25
2023-05-19T14:15:38.486Z,11.45
2023-05-19T14:18:10.307Z,11.15
2023-05-19T14:20:42.710Z,10.38
2023-05-19T14:23:16.170Z,10.55
2023-05-19T14:25:49.543Z,14.88
2023-05-19T14:28:21.682Z,12.60
2023-05-19T14:30:52.235Z,11.02
2023-05-19T14:33:23.377Z,13.52
2023-05-19T14:35:56.531Z,12.57
2023-05-19T14:38:27.727Z,13.23
2023-05-19T14:40:59.322Z,12.85
2023-05-19T14:43:29.125Z,12.98
2023-05-19T14:45:59.392Z,12.65
2023-05-19T14:48:33.863Z,10.48
2023-05-19T14:51:05.448Z,12.43
2023-05-19T14:53:40.243Z,10.80
2023-05-19T14:56:18.135Z,10.55
2023-05-19T14:58:50.336Z,12.05
2023-05-19T15:01:24.119Z,11.40
2023-05-19T15:03:56.268Z,12.55
2023-05-19T15:06:29.006Z,12.88
2023-05-19T15:09:01.079Z,11.07
2023-05-19T15:11:35.950Z,12.15
2023-05-19T15:14:10.840Z,11.02
2023-05-19T15:16:45.383Z,10.57
2023-05-19T15:19:17.826Z,10.32
2023-05-19T15:21:51.129Z,11.00
2023-05-19T15:24:23.496Z,9.48
2023-05-19T15:26:52.970Z,11.95
2023-05-19T15:29:27.377Z,9.90
2023-05-19T15:31:57.636Z,10.30
2023-05-19T15:34:31.556Z,9.25
2023-05-19T15:37:08.448Z,10.32
2023-05-19T15:39:40.957Z,10.70
2023-05-19T15:42:12.305Z,10.20
2023-05-19T15:44:51.649Z,12.05
2023-05-19T15:47:27.613Z,10.85
2023-05-19T15:49:56.947Z,10.90
2023-05-19T15:52:29.711Z,9.45
2023-05-19T15:55:03.559Z,10.13
2023-05-19T15:57:33.749Z,12.90
2023-05-19T16:00:02.943Z,9.57
2023-05-19T16:02:37.353Z,9.82
2023-05-19T16:05:12.159Z,11.20
2023-05-19T16:07:44.490Z,10.80
2023-05-19T16:10:16.866Z,11.30
2023-05-19T16:12:48.719Z,9.82
2023-05-19T16:15:21.372Z,10.90
2023-05-19T16:17:52.943Z,8.43
2023-05-19T16:20:29.764Z,10.05
2023-05-19T16:23:03.916Z,11.35
2023-05-19T16:25:38.378Z,11.23
2023-05-19T16:30:41.392Z,10.82
2023-05-19T16:33:16.789Z,8.90
2023-05-19T16:35:46.333Z,11.88
2023-05-19T16:38:22.731Z,10.60
2023-05-19T16:40:56.582Z,11.70
2023-05-19T16:43:28.367Z,10.00
2023-05-19T16:45:58.862Z,13.15
2023-05-19T16:48:36.378Z,11.93
2023-05-19T16:51:05.928Z,11.85
2023-05-19T16:53:40.304Z,12.38
2023-05-19T16:56:09.593Z,14.68
2023-05-19T16:58:39.333Z,12.55
2023-05-19T17:01:10.403Z,13.18
2023-05-19T17:03:43.404Z,11.82
2023-05-19T17:06:15.282Z,13.02
2023-05-19T17:08:45.346Z,14.68
2023-05-19T17:11:19.853Z,11.70
2023-05-19T17:13:57.073Z,13.23
2023-05-19T17:16:39.943Z,12.90
2023-05-19T17:19:12.540Z,11.48
2023-05-19T17:21:47.197Z,12.68
2023-05-19T17:24:22.934Z,13.95
2023-05-19T17:26:54.691Z,16.55
2023-05-19T17:29:24.050Z,13.05
2023-05-19T17:31:53.403Z,10.80
2023-05-19T17:34:28.905Z,14.63
2023-05-19T17:39:33.934Z,12.43
2023-05-19T17:42:06.600Z,13.65
2023-05-19T17:44:38.638Z,12.75
2023-05-19T17:47:12.874Z,14.38
2023-05-19T17:49:42.104Z,14.45
2023-05-19T17:52:14.657Z,12.88
2023-05-19T17:54:46.636Z,11.15
2023-05-19T17:57:20.673Z,13.55
2023-05-19T17:59:55.293Z,11.95
2023-05-19T18:02:28.417Z,11.80
2023-05-19T18:05:06.356Z,12.52
2023-05-19T18:07:40.374Z,12.27
2023-05-19T18:10:19.278Z,11.55
2023-05-19T18:12:49.372Z,11.10
2023-05-19T18:15:19.346Z,13.65
2023-05-19T18:17:55.608Z,9.82
2023-05-19T18:20:26.339Z,12.93
2023-05-19T18:22:55.820Z,14.10
2023-05-19T18:25:30.815Z,13.05
2023-05-19T18:28:02.738Z,12.35
2023-05-19T18:30:33.522Z,12.70
2023-05-19T18:33:07.996Z,13.55
2023-05-19T18:35:38.040Z,11.10
2023-05-19T18:38:07.504Z,13.73
2023-05-19T18:40:37.130Z,14.63
2023-05-19T18:43:14.241Z,14.20
2023-05-19T18:45:50.845Z,11.00
2023-05-19T18:48:23.521Z,13.27
2023-05-19T18:50:58.467Z,12.02
2023-05-19T18:53:31.829Z,11.90
2023-05-19T18:56:06.752Z,14.68
2023-05-19T18:58:36.772Z,12.63
2023-05-19T19:01:09.239Z,11.38
2023-05-19T19:03:42.495Z,12.05
2023-05-19T19:06:24.282Z,11.65
2023-05-19T19:09:05.073Z,13.80
2023-05-19T19:11:42.003Z,15.35
2023-05-19T19:14:16.003Z,11.82
2023-05-19T19:16:47.391Z,10.38
2023-05-19T19:19:19.395Z,12.88
2023-05-19T19:21:48.758Z,12.93
2023-05-19T19:24:21.339Z,14.63
2023-05-19T19:29:22.562Z,11.02
2023-05-19T19:31:55.274Z,12.77
2023-05-19T19:34:34.798Z,11.73
2023-05-19T19:37:10.154Z,12.75
2023-05-19T19:39:41.794Z,13.20
2023-05-19T19:42:14.386Z,11.90
2023-05-19T19:47:14.754Z,11.68
2023-05-19T19:49:52.249Z,11.98
2023-05-19T19:52:24.525Z,12.38
2023-05-19T19:54:54.211Z,12.65
2023-05-19T19:57:30.663Z,12.25
2023-05-19T20:00:08.806Z,10.82
2023-05-19T20:02:51.641Z,11.10
2023-05-19T20:05:29.865Z,11.68
2023-05-19T20:08:05.376Z,14.52
2023-05-19T20:13:06.337Z,10.85
2023-05-19T20:15:47.554Z,11.00
2023-05-19T20:18:19.343Z,12.27
2023-05-19T20:20:51.492Z,10.20
2023-05-19T20:23:27.459Z,12.30
2023-05-19T20:26:13.160Z,11.65
2023-05-19T20:28:45.682Z,12.50
2023-05-19T20:31:15.088Z,10.95
2023-05-19T20:36:19.184Z,13.50
2023-05-19T20:38:54.308Z,11.07
2023-05-19T20:41:24.421Z,13.00
2023-05-19T20:43:55.718Z,13.18
2023-05-19T20:46:30.755Z,13.77
2023-05-19T20:49:06.968Z,12.35
2023-05-19T20:51:40.735Z,11.75
2023-05-19T20:54:17.357Z,10.82
2023-05-19T20:56:49.016Z,12.93
2023-05-19T20:59:23.609Z,13.27
2023-05-19T21:02:00.648Z,13.18
2023-05-19T21:04:34.099Z,11.32
2023-05-19T21:07:07.004Z,13.65
2023-05-19T21:09:43.372Z,10.68
2023-05-19T21:12:15.583Z,12.95
2023-05-19T21:14:45.798Z,13.15
2023-05-19T21:17:22.722Z,10.63
2023-05-19T21:19:59.936Z,10.70
2023-05-19T21:22:31.680Z,12.45
2023-05-19T21:25:03.238Z,11.80
2023-05-19T21:27:37.232Z,14.02
2023-05-19T21:30:11.066Z,9.38
2023-05-19T21:32:42.686Z,11.48
2023-05-19T21:35:12.170Z,11.55
2023-05-19T21:37:43.556Z,13.57
2023-05-19T21:40:13.239Z,13.73
2023-05-19T21:42:47.220Z,11.80
2023-05-19T21:45:18.711Z,11.02
2023-05-19T21:47:53.960Z,11.40
2023-05-19T21:50:31.394Z,12.40
2023-05-19T21:53:06.185Z,14.25
2023-05-19T21:55:39.670Z,10.15
2023-05-19T21:58:14.367Z,10.45
2023-05-19T22:00:57.422Z,12.27
2023-05-19T22:03:38.916Z,12.20
2023-05-19T22:06:13.068Z,12.20
2023-05-19T22:08:45.632Z,11.18
2023-05-19T22:11:26.612Z,13.18
2023-05-19T22:14:06.688Z,12.68
2023-05-19T22:16:39.654Z,10.98
2023-05-19T22:19:09.068Z,12.20
2023-05-19T22:22:01.811Z,12.85
2023-05-19T22:24:40.645Z,11.90
2023-05-19T22:27:15.339Z,11.25
2023-05-19T22:29:50.342Z,12.40
2023-05-19T22:32:21.740Z,11.95
2023-05-19T22:34:57.611Z,12.38
2023-05-19T22:37:35.379Z,9.73
2023-05-19T22:40:11.669Z,12.30
2023-05-19T22:42:46.439Z,12.85
2023-05-19T22:45:22.172Z,12.13
2023-05-19T22:47:57.538Z,13.68
2023-05-19T22:50:29.097Z,16.77
2023-05-19T22:53:06.549Z,11.43
2023-05-19T22:55:42.087Z,10.80
2023-05-19T22:58:46.511Z,14.50
2023-05-19T23:01:15.659Z,12.07
2023-05-19T23:03:52.750Z,12.90
2023-05-19T23:06:24.354Z,12.82
2023-05-19T23:09:04.060Z,15.40
2023-05-19T23:11:36.519Z,14.18
2023-05-19T23:14:09.971Z,16.10
2023-05-19T23:16:43.989Z,14.40
2023-05-19T23:19:18.020Z,13.57
2023-05-19T23:21:49.829Z,12.88
2023-05-19T23:24:21.750Z,18.10
2023-05-19T23:26:55.010Z,13.13
2023-05-19T23:29:24.020Z,12.90
2023-05-19T23:31:53.260Z,14.63
2023-05-19T23:34:22.814Z,12.27
2023-05-19T23:36:54.469Z,11.95
2023-05-19T23:39:29.085Z,17.23
2023-05-19T23:42:00.364Z,13.10
2023-05-19T23:44:32.014Z,11.60
2023-05-19T23:47:04.561Z,19.27
2023-05-19T23:49:41.498Z,10.35
2023-05-19T23:52:14.389Z,16.92
2023-05-19T23:54:49.854Z,13.57
2023-05-19T23:57:25.812Z,15.27
2023-05-19T23:59:57.274Z,12.88
